Airport View

Enter AWOS ICAO identifier for current METAR.

ex. KFNL

KAIG 251725Z AUTO 36004KT 10SM BKN065 BKN080 OVC090 00/M05 A3027 RMK AO2 T00001048

25 Oct 2020 17:29

Frequency: 119.075

Phone: 715-627-2869

Other Area AWOS: KRRL - KAUW - KEZS - KRHI

TAF KAUW 251120Z 2512/2612 36004KT P6SM -SHSN BKN050 OVC080 FM252000 34004KT 5SM -SHSN OVC022 FM252100 34004KT 2SM -SHSN OVC013 FM260000 34004KT 3SM -SHSN OVC014 FM260400 34005KT 3SM -SHSN OVC009 FM260800 33005KT P6SM -SHSN BKN015 OVC035